Time;durP1;ratioP1;P1;durP2;ratioP2;P2;SDS_P1;SDS_P2;PMS_P1;PMS_P2;Temp;Humidity;BMP_temperature;BMP_pressure;BME280_temperature;BME280_humidity;BME280_pressure;Samples;Min_cycle;Max_cycle;Signal;HPM_P1;HPM_P2
2022/04/16 00:01:26;;;;;;;25.33;21.10;;;;;;;11.40;70.42;101153.28;5054976;28;20052;-64
2022/04/16 00:04:10;;;;;;;25.65;21.25;;;;;;;11.39;70.08;101148.91;5054484;28;20132;-65
2022/04/16 00:06:55;;;;;;;26.35;21.45;;;;;;;11.37;70.30;101147.97;5055336;28;20064;-65
2022/04/16 00:09:39;;;;;;;24.83;20.08;;;;;;;11.37;70.13;101149.72;5054207;28;20044;-65
2022/04/16 00:12:23;;;;;;;24.23;20.05;;;;;;;11.37;70.44;101141.91;5054318;28;20052;-64
2022/04/16 00:15:07;;;;;;;25.15;21.42;;;;;;;11.34;70.17;101144.41;5055229;28;20044;-64
2022/04/16 00:17:51;;;;;;;;;;;;;;;11.32;70.21;101146.97;5055424;28;20060;-64
2022/04/16 00:20:35;;;;;;;25.45;21.05;;;;;;;11.33;70.16;101148.75;5054038;28;19935;-65
2022/04/16 00:23:19;;;;;;;26.33;21.25;;;;;;;11.31;70.05;101144.31;5055139;28;20500;-64
2022/04/16 00:26:03;;;;;;;25.02;21.45;;;;;;;11.31;70.58;101144.31;5054381;28;20079;-64
2022/04/16 00:28:49;;;;;;;26.90;22.48;;;;;;;11.32;70.17;101156.47;5055026;28;20048;-65
2022/04/16 00:31:33;;;;;;;25.67;21.40;;;;;;;11.32;70.38;101151.28;5053968;28;20094;-64
2022/04/16 00:34:19;;;;;;;23.65;19.52;;;;;;;11.32;70.25;101152.16;5054369;28;20044;-65
2022/04/16 00:37:03;;;;;;;23.52;20.45;;;;;;;11.31;70.43;101154.69;5053738;28;20056;-64
2022/04/16 00:39:47;;;;;;;;;;;;;;;11.29;70.24;101153.81;5055343;28;20078;-64
2022/04/16 00:42:39;;;;;;;22.33;18.65;;;;;;;11.27;70.41;101154.63;5054487;28;19924;-65
2022/04/16 00:45:23;;;;;;;23.10;18.95;;;;;;;11.26;70.32;101159.75;5053744;28;20114;-64
2022/04/16 00:48:07;;;;;;;23.88;19.70;;;;;;;11.24;70.41;101164.91;5054526;28;20048;-64
2022/04/16 00:50:52;;;;;;;;;;;;;;;11.23;70.05;101167.44;5054242;28;20055;-65
2022/04/16 00:53:36;;;;;;;23.20;19.30;;;;;;;11.20;69.97;101157.84;5054454;28;19966;-64
2022/04/16 00:56:20;;;;;;;25.67;20.63;;;;;;;11.21;70.55;101156.16;5054222;28;20111;-65
2022/04/16 00:59:05;;;;;;;24.30;20.17;;;;;;;11.21;70.15;101162.22;5053065;28;20075;-65
2022/04/16 01:01:49;;;;;;;;;;;;;;;11.19;70.39;101161.28;5053924;28;20052;-64
2022/04/16 01:04:33;;;;;;;22.90;18.52;;;;;;;11.19;70.23;101160.41;5054295;28;19919;-66
2022/04/16 01:07:24;;;;;;;23.27;19.40;;;;;;;11.19;70.04;101166.47;5054088;28;20076;-64
2022/04/16 01:10:09;;;;;;;22.98;18.98;;;;;;;11.19;70.41;101166.47;5053373;28;20047;-64
2022/04/16 01:12:54;;;;;;;23.40;19.65;;;;;;;11.19;69.99;101170.78;5053300;28;20137;-64
2022/04/16 01:15:39;;;;;;;23.73;19.38;;;;;;;11.17;70.11;101167.25;5052891;28;20562;-65
2022/04/16 01:18:23;;;;;;;23.58;19.35;;;;;;;11.17;70.13;101170.72;5053249;28;20095;-64
2022/04/16 01:21:07;;;;;;;;;;;;;;;11.15;70.31;101172.38;5054456;28;20412;-64
2022/04/16 01:23:51;;;;;;;23.88;19.20;;;;;;;11.17;70.47;101167.25;5053579;28;19920;-64
2022/04/16 01:26:35;;;;;;;24.65;19.00;;;;;;;11.15;70.54;101168.94;5053065;28;20048;-65
2022/04/16 01:29:20;;;;;;;;;;;;;;;11.12;69.88;101172.31;5054196;28;20082;-64
2022/04/16 01:32:06;;;;;;;25.85;20.55;;;;;;;11.11;70.24;101173.16;5053143;28;19919;-65
2022/04/16 01:34:50;;;;;;;24.83;19.90;;;;;;;11.10;70.44;101177.44;5053978;28;20083;-65
2022/04/16 01:37:35;;;;;;;;;;;;;;;11.09;70.07;101174.81;5053810;28;20087;-65
2022/04/16 01:40:25;;;;;;;22.83;18.75;;;;;;;11.09;70.20;101185.19;5052944;28;19920;-64
2022/04/16 01:43:09;;;;;;;23.83;19.70;;;;;;;11.08;70.36;101183.41;5053562;28;20118;-65
2022/04/16 01:45:53;;;;;;;24.80;19.23;;;;;;;11.07;70.40;101181.66;5052913;28;20479;-65
2022/04/16 01:48:37;;;;;;;23.75;19.05;;;;;;;11.08;70.47;101180.81;5053909;28;20056;-64
2022/04/16 01:51:22;;;;;;;26.17;20.90;;;;;;;11.07;70.46;101189.44;5053065;28;20047;-65
2022/04/16 01:54:06;;;;;;;24.83;19.60;;;;;;;11.08;70.39;101192.06;5052836;28;20099;-64
2022/04/16 01:56:51;;;;;;;23.98;19.25;;;;;;;11.07;70.22;101192.91;5053545;28;20047;-64
2022/04/16 01:59:34;;;;;;;;;;;;;;;11.05;69.96;101188.50;5053467;28;20122;-64
2022/04/16 02:02:22;;;;;;;21.17;17.80;;;;;;;11.05;70.15;101188.50;5053191;28;19920;-64
2022/04/16 02:05:08;;;;;;;24.50;19.27;;;;;;;11.04;70.50;101189.34;5052547;28;20052;-65
2022/04/16 02:07:53;;;;;;;23.45;19.38;;;;;;;11.03;70.30;101190.16;5051692;28;20087;-64
2022/04/16 02:10:36;;;;;;;;;;;;;;;11.02;69.92;101193.59;5054157;28;20044;-65
2022/04/16 02:13:20;;;;;;;25.05;18.65;;;;;;;11.01;70.32;101189.22;5053399;28;19958;-64
2022/04/16 02:16:04;;;;;;;24.83;19.40;;;;;;;11.01;70.17;101191.81;5052142;28;20051;-64
2022/04/16 02:18:49;;;;;;;25.27;20.05;;;;;;;11.01;70.24;101189.22;5052623;28;20052;-65
2022/04/16 02:21:33;;;;;;;23.48;19.65;;;;;;;11.00;70.36;101200.44;5052403;28;20091;-65
2022/04/16 02:24:17;;;;;;;22.60;19.35;;;;;;;10.99;70.31;101199.56;5053468;28;20060;-64
2022/04/16 02:27:01;;;;;;;;;;;;;;;10.99;70.29;101199.56;5053218;28;20094;-65
2022/04/16 02:29:45;;;;;;;23.25;19.15;;;;;;;11.00;70.00;101200.44;5053050;28;19924;-65
2022/04/16 02:32:30;;;;;;;22.02;18.30;;;;;;;10.98;70.53;101199.53;5053163;28;20557;-65
2022/04/16 02:35:16;;;;;;;23.90;19.95;;;;;;;10.96;70.02;101192.56;5052469;28;20043;-65
2022/04/16 02:38:00;;;;;;;24.13;18.65;;;;;;;10.96;70.38;101205.53;5052442;28;20124;-65
2022/04/16 02:40:46;;;;;;;19.98;17.85;;;;;;;10.93;70.25;101200.25;5052850;28;20055;-64
2022/04/16 02:43:30;;;;;;;24.73;18.95;;;;;;;10.94;69.98;101198.53;5051907;28;20044;-65
2022/04/16 02:49:17;;;;;;;24.58;19.98;;;;;;;10.92;70.25;101198.47;5052868;28;20108;-64
2022/04/16 02:52:01;;;;;;;21.30;18.20;;;;;;;10.90;70.14;101199.28;5052686;28;20103;-65
2022/04/16 02:54:45;;;;;;;;;;;;;;;10.88;70.15;101201.78;5056341;28;20530;-64
2022/04/16 02:57:31;;;;;;;23.45;19.92;;;;;;;10.87;69.97;101199.16;5056075;28;19935;-64
2022/04/16 03:00:15;;;;;;;23.25;19.90;;;;;;;10.86;70.31;101205.19;5055507;28;20043;-64
2022/04/16 03:02:59;;;;;;;;;;;;;;;10.84;70.25;101209.44;5057289;28;20052;-64
2022/04/16 03:05:43;;;;;;;23.45;18.73;;;;;;;10.81;70.18;101205.91;5055489;28;20290;-64
2022/04/16 03:08:28;;;;;;;22.80;18.58;;;;;;;10.81;70.46;101218.00;5055685;28;20127;-64
2022/04/16 03:11:12;;;;;;;;;;;;;;;10.79;70.09;101214.47;5055717;28;20558;-64
2022/04/16 03:13:55;;;;;;;19.20;16.95;;;;;;;10.79;70.40;101220.53;5056150;28;19920;-64
2022/04/16 03:19:45;;;;;;;24.15;18.75;;;;;;;10.79;70.10;101212.75;5056155;28;20400;-64
2022/04/16 03:22:29;;;;;;;22.83;19.00;;;;;;;10.77;70.54;101216.13;5055286;28;20080;-64
2022/04/16 03:25:13;;;;;;;24.77;19.60;;;;;;;10.77;70.12;101217.00;5056010;28;20569;-64
2022/04/16 03:27:57;;;;;;;22.95;19.15;;;;;;;10.76;70.31;101219.53;5056012;28;20102;-65
2022/04/16 03:30:42;;;;;;;24.95;19.00;;;;;;;10.78;70.43;101212.69;5055564;28;20055;-65
2022/04/16 03:33:25;;;;;;;21.05;18.17;;;;;;;10.75;70.56;101216.06;5055876;28;20040;-64
2022/04/16 03:36:09;;;;;;;25.25;18.80;;;;;;;10.77;70.15;101218.72;5054772;28;20056;-64
2022/04/16 03:38:53;;;;;;;21.38;18.20;;;;;;;10.76;70.03;101215.22;5055108;28;20040;-64
2022/04/16 03:41:38;;;;;;;23.83;19.60;;;;;;;10.75;69.97;101213.47;5054632;28;20122;-64
2022/04/16 03:44:22;;;;;;;21.92;18.38;;;;;;;10.75;70.21;101217.78;5055792;28;20087;-64
2022/04/16 03:47:06;;;;;;;22.85;19.27;;;;;;;10.75;70.25;101223.84;5054980;28;20056;-64
2022/04/16 03:49:51;;;;;;;22.40;18.92;;;;;;;10.74;70.00;101222.09;5055901;28;20630;-64
2022/04/16 03:52:39;;;;;;;25.10;19.98;;;;;;;10.72;70.14;101220.25;5054916;28;20393;-65
2022/04/16 04:01:34;;;;;;;24.17;19.20;;;;;;;10.71;70.05;101221.09;5055444;28;20117;-65
2022/04/16 04:04:18;;;;;;;22.52;19.02;;;;;;;10.70;70.47;101217.63;5055248;28;20074;-64
2022/04/16 04:07:02;;;;;;;22.33;18.67;;;;;;;10.69;70.25;101222.75;5054916;28;20059;-65
2022/04/16 04:09:45;;;;;;;23.30;19.88;;;;;;;10.69;70.29;101223.63;5055666;28;20048;-64
2022/04/16 04:12:29;;;;;;;23.38;18.80;;;;;;;10.69;70.02;101226.22;5055136;28;20079;-64
2022/04/16 04:15:13;;;;;;;23.50;18.85;;;;;;;10.68;70.49;101228.75;5054789;28;20408;-64
2022/04/16 04:18:01;;;;;;;24.95;18.85;;;;;;;10.68;70.35;101229.66;5054679;28;20060;-64
2022/04/16 04:20:44;;;;;;;22.80;18.52;;;;;;;10.69;70.01;101233.13;5054418;28;20044;-64
2022/04/16 04:23:28;;;;;;;23.35;18.60;;;;;;;10.66;70.38;101237.41;5054899;28;20514;-64
2022/04/16 04:26:12;;;;;;;21.77;19.15;;;;;;;10.66;70.14;101244.28;5055028;28;20569;-64
2022/04/16 04:28:56;;;;;;;24.98;19.75;;;;;;;10.64;70.07;101241.63;5054169;28;20079;-64
2022/04/16 04:31:40;;;;;;;24.58;19.75;;;;;;;10.62;70.36;101251.06;5054084;28;20102;-65
2022/04/16 04:34:24;;;;;;;24.85;19.15;;;;;;;10.63;70.55;101252.84;5054428;28;20134;-65
2022/04/16 04:37:08;;;;;;;23.83;19.30;;;;;;;10.62;70.12;101251.06;5054619;28;20108;-64
2022/04/16 04:39:53;;;;;;;24.60;18.88;;;;;;;10.63;70.43;101251.94;5053727;28;20048;-65
2022/04/16 04:42:37;;;;;;;21.77;19.05;;;;;;;10.64;70.00;101264.06;5054246;28;20087;-64
2022/04/16 04:45:20;;;;;;;26.20;19.88;;;;;;;10.65;70.03;101258.97;5054577;28;20051;-64
2022/04/16 04:48:04;;;;;;;23.40;19.17;;;;;;;10.66;69.84;101270.19;5053206;28;20047;-64
2022/04/16 04:50:48;;;;;;;;;;;;;;;10.64;69.87;101266.66;5055175;28;20554;-64
2022/04/16 04:53:33;;;;;;;24.77;18.38;;;;;;;10.63;70.08;101270.97;5053988;28;20403;-65
2022/04/16 04:56:16;;;;;;;21.02;17.70;;;;;;;10.64;70.26;101274.44;5054518;28;20048;-64
2022/04/16 04:59:01;;;;;;;25.77;19.80;;;;;;;10.64;70.37;101272.75;5054290;28;20048;-65
2022/04/16 05:01:45;;;;;;;;;;;;;;;10.64;70.04;101279.63;5054264;28;20094;-65
2022/04/16 05:04:29;;;;;;;22.20;18.58;;;;;;;10.63;70.47;101283.94;5054077;28;20341;-64
2022/04/16 05:07:13;;;;;;;24.38;20.10;;;;;;;10.62;70.09;101294.25;5053994;28;20424;-65
2022/04/16 05:09:57;;;;;;;25.48;20.17;;;;;;;10.61;69.87;101289.88;5054445;28;20094;-65
2022/04/16 05:12:41;;;;;;;24.48;19.48;;;;;;;10.60;70.38;101285.53;5053167;28;20056;-64
2022/04/16 05:15:25;;;;;;;24.55;19.33;;;;;;;10.57;70.49;101288.03;5054184;28;20059;-64
2022/04/16 05:18:09;;;;;;;21.85;18.60;;;;;;;10.56;70.27;101279.34;5053607;28;20052;-64
2022/04/16 05:20:52;;;;;;;21.92;19.23;;;;;;;10.55;70.47;101293.13;5054240;28;20131;-65
2022/04/16 05:23:39;;;;;;;23.25;19.60;;;;;;;10.54;70.25;101291.38;5054035;28;20048;-64
2022/04/16 05:26:23;;;;;;;25.95;19.58;;;;;;;10.55;69.96;101295.72;5052778;28;20533;-64
2022/04/16 05:29:07;;;;;;;22.10;18.65;;;;;;;10.53;70.05;101296.50;5054071;28;20091;-65
2022/04/16 05:31:51;;;;;;;;;;;;;;;10.51;70.19;101302.53;5054063;28;20047;-64
2022/04/16 05:34:35;;;;;;;24.63;19.38;;;;;;;10.51;70.06;101299.94;5053541;28;19996;-64
2022/04/16 05:37:19;;;;;;;25.83;20.42;;;;;;;10.51;70.05;101301.63;5053014;28;20052;-65
2022/04/16 05:40:04;;;;;;;24.27;20.38;;;;;;;10.49;70.24;101309.34;5053592;28;20040;-64
2022/04/16 05:42:48;;;;;;;21.95;19.25;;;;;;;10.47;70.32;101303.22;5052764;28;20048;-64
2022/04/16 05:45:32;;;;;;;21.50;17.83;;;;;;;10.48;70.41;101306.72;5052638;28;20521;-65
2022/04/16 05:48:16;;;;;;;26.45;19.88;;;;;;;10.47;70.49;101313.59;5053598;28;20043;-64
2022/04/16 05:51:01;;;;;;;22.27;19.50;;;;;;;10.46;70.30;101318.75;5053560;28;20523;-64
2022/04/16 05:53:47;;;;;;;23.00;18.40;;;;;;;10.46;70.19;101318.75;5052277;28;20522;-64
2022/04/16 05:56:31;;;;;;;24.17;20.08;;;;;;;10.45;70.30;101325.63;5052700;28;20070;-64
2022/04/16 05:59:15;;;;;;;25.60;20.95;;;;;;;10.46;70.47;101323.91;5053092;28;20048;-65
2022/04/16 06:02:00;;;;;;;26.75;20.58;;;;;;;10.47;70.26;101323.97;5052786;28;20056;-64
2022/04/16 06:04:44;;;;;;;25.23;20.65;;;;;;;10.45;70.30;101335.13;5052905;28;20068;-64
2022/04/16 06:07:28;;;;;;;23.40;19.23;;;;;;;10.46;70.20;101332.56;5053330;28;20103;-64
2022/04/16 06:10:12;;;;;;;24.88;20.42;;;;;;;10.47;70.42;101333.47;5052277;28;20047;-65
2022/04/16 06:12:56;;;;;;;;;;;;;;;10.45;70.12;101329.94;5053031;28;20052;-65
2022/04/16 06:15:43;;;;;;;22.23;19.83;;;;;;;10.43;70.27;101331.56;5053230;28;19966;-65
2022/04/16 06:18:27;;;;;;;28.73;20.17;;;;;;;10.44;70.41;101335.94;5052118;28;20048;-64
2022/04/16 06:21:12;;;;;;;22.52;18.10;;;;;;;10.44;70.22;101336.81;5053210;28;20155;-64
2022/04/16 06:23:57;;;;;;;;;;;;;;;10.45;70.37;101348.06;5053407;28;20036;-64
2022/04/16 06:26:45;;;;;;;23.05;19.60;;;;;;;10.43;70.49;101348.00;5052889;28;19955;-65
2022/04/16 06:29:29;;;;;;;22.13;18.52;;;;;;;10.42;70.46;101347.94;5055279;28;20099;-65
2022/04/16 06:32:13;;;;;;;24.83;19.77;;;;;;;10.44;70.50;101343.72;5057320;28;20052;-64
2022/04/16 06:34:57;;;;;;;22.05;18.65;;;;;;;10.44;70.76;101354.09;5056981;28;20094;-64
2022/04/16 06:37:44;;;;;;;;;;;;;;;10.42;70.65;101347.94;5057284;28;20048;-65
2022/04/16 06:40:29;;;;;;;23.45;19.45;;;;;;;10.42;70.34;101345.38;5056196;28;20442;-64
2022/04/16 06:43:12;;;;;;;;;;;;;;;10.42;70.66;101353.13;5056523;28;20072;-64
2022/04/16 06:45:57;;;;;;;25.00;19.80;;;;;;;10.41;70.81;101354.84;5057007;28;19955;-64
2022/04/16 06:48:41;;;;;;;22.08;18.50;;;;;;;10.41;70.77;101353.97;5056518;28;20052;-65
2022/04/16 06:51:25;;;;;;;21.65;19.20;;;;;;;10.42;70.38;101347.94;5057154;28;20048;-65
2022/04/16 06:54:09;;;;;;;29.75;20.08;;;;;;;10.43;70.77;101353.19;5057120;28;20158;-64
2022/04/16 06:56:53;;;;;;;25.88;20.77;;;;;;;10.44;70.76;101347.19;5056539;28;20203;-65
2022/04/16 06:59:37;;;;;;;25.25;20.00;;;;;;;10.46;70.79;101349.84;5055735;28;20052;-64
2022/04/16 07:02:21;;;;;;;24.10;19.52;;;;;;;10.44;70.50;101342.00;5055365;28;20091;-65
2022/04/16 07:05:07;;;;;;;23.35;19.30;;;;;;;10.47;70.40;101347.28;5056583;28;20056;-65
2022/04/16 07:07:50;;;;;;;23.75;18.67;;;;;;;10.50;70.75;101343.94;5055498;28;20056;-64
2022/04/16 07:10:34;;;;;;;24.73;19.58;;;;;;;10.49;70.59;101350.84;5056337;28;20048;-65
2022/04/16 07:13:18;;;;;;;24.08;19.25;;;;;;;10.49;70.68;101352.56;5055998;28;20113;-65
2022/04/16 07:16:02;;;;;;;24.30;19.80;;;;;;;10.50;70.49;101347.41;5055781;28;20103;-65
2022/04/16 07:18:46;;;;;;;23.80;19.52;;;;;;;10.51;70.64;101348.28;5056506;28;20231;-64
2022/04/16 07:21:30;;;;;;;24.30;19.13;;;;;;;10.49;70.65;101352.56;5055489;28;20408;-64
2022/04/16 07:24:14;;;;;;;23.48;19.23;;;;;;;10.51;70.75;101350.88;5056440;28;20466;-65
2022/04/16 07:26:58;;;;;;;23.10;19.05;;;;;;;10.53;70.78;101350.94;5055992;28;20071;-64
2022/04/16 07:29:42;;;;;;;25.98;19.27;;;;;;;10.53;70.76;101349.22;5056434;28;20051;-65
2022/04/16 07:32:26;;;;;;;;;;;;;;;10.51;70.75;101353.47;5056302;28;20048;-65
2022/04/16 07:35:10;;;;;;;23.00;19.00;;;;;;;10.51;70.77;101353.47;5055285;28;19920;-65
2022/04/16 07:37:57;;;;;;;20.83;17.55;;;;;;;10.55;70.54;101357.09;5055744;28;20585;-65
2022/04/16 07:40:41;;;;;;;21.83;17.42;;;;;;;10.55;70.81;101359.66;5055675;28;20052;-64
2022/04/16 07:43:26;;;;;;;23.58;18.17;;;;;;;10.55;70.28;101357.94;5055747;28;20067;-65
2022/04/16 07:46:10;;;;;;;21.10;17.92;;;;;;;10.54;70.98;101358.78;5055699;28;20565;-64
2022/04/16 07:48:56;;;;;;;23.27;19.58;;;;;;;10.56;70.57;101361.44;5055057;28;20040;-65
2022/04/16 07:51:40;;;;;;;23.27;18.45;;;;;;;10.55;70.41;101355.34;5054890;28;20056;-64
2022/04/16 07:54:24;;;;;;;21.60;17.67;;;;;;;10.57;70.33;101361.47;5055625;28;20129;-65
2022/04/16 07:57:08;;;;;;;23.75;18.40;;;;;;;10.57;70.79;101358.03;5055401;28;20079;-64
2022/04/16 07:59:54;;;;;;;;;;;;;;;10.56;70.57;101364.91;5054743;28;20051;-64
2022/04/16 08:02:38;;;;;;;21.05;16.38;;;;;;;10.59;70.60;101362.44;5054195;28;20057;-64
2022/04/16 08:05:22;;;;;;;19.95;16.95;;;;;;;10.63;70.34;101366.00;5055567;28;20740;-64
2022/04/16 08:08:06;;;;;;;22.88;17.73;;;;;;;10.60;70.43;101365.88;5056312;28;20056;-64
2022/04/16 08:10:53;;;;;;;22.77;18.23;;;;;;;10.61;70.93;101365.06;5055305;28;20137;-64
2022/04/16 08:13:37;;;;;;;20.38;16.05;;;;;;;10.61;70.73;101368.56;5054901;28;20103;-64
2022/04/16 08:16:21;;;;;;;23.92;16.33;;;;;;;10.61;70.85;101365.97;5055709;28;20123;-64
2022/04/16 08:19:05;;;;;;;21.83;15.73;;;;;;;10.64;70.69;101360.00;5055169;28;20099;-64
2022/04/16 08:21:49;;;;;;;21.35;16.77;;;;;;;10.64;70.08;101372.97;5055138;28;20044;-64
2022/04/16 08:27:21;;;;;;;18.13;15.45;;;;;;;10.65;70.77;101372.13;5054497;28;20431;-64
2022/04/16 08:30:07;;;;;;;18.85;15.05;;;;;;;10.67;70.58;101378.25;5055021;28;20071;-65
2022/04/16 08:32:52;;;;;;;19.45;15.90;;;;;;;10.68;70.58;101381.72;5054211;28;20128;-65
2022/04/16 08:35:37;;;;;;;;;;;;;;;10.70;70.16;101378.38;5054648;28;20090;-64
2022/04/16 08:38:21;;;;;;;17.58;14.00;;;;;;;10.68;70.74;101376.53;5053866;28;20295;-64
2022/04/16 08:41:09;;;;;;;18.75;15.18;;;;;;;10.71;70.53;101377.56;5055088;28;20507;-65
2022/04/16 08:43:54;;;;;;;16.58;13.63;;;;;;;10.74;70.18;101375.09;5053888;28;20052;-64
2022/04/16 08:46:39;;;;;;;20.23;15.75;;;;;;;10.72;70.32;101378.44;5053714;28;20102;-64
2022/04/16 08:49:25;;;;;;;28.33;15.20;;;;;;;10.74;70.53;101382.88;5053441;28;20107;-66
2022/04/16 08:52:10;;;;;;;18.25;14.82;;;;;;;10.75;70.36;101376.81;5054023;28;20055;-64
2022/04/16 08:54:56;;;;;;;17.85;14.30;;;;;;;10.79;70.39;101373.53;5053804;28;20055;-64
2022/04/16 08:57:41;;;;;;;17.27;14.32;;;;;;;10.79;70.62;101370.06;5053369;28;20066;-64
2022/04/16 09:00:25;;;;;;;;;;;;;;;10.80;70.21;101383.06;5053820;28;20052;-64
2022/04/16 09:03:09;;;;;;;15.48;13.10;;;;;;;10.78;70.58;101379.53;5054274;28;19923;-64
2022/04/16 09:05:54;;;;;;;;;;;;;;;10.80;70.43;101371.84;5054452;28;20094;-64
2022/04/16 09:08:38;;;;;;;14.07;10.90;;;;;;;10.81;70.19;101378.78;5053015;28;19967;-64
2022/04/16 09:11:26;;;;;;;14.45;11.70;;;;;;;10.81;70.42;101371.00;5054084;28;20099;-64
2022/04/16 09:14:10;;;;;;;15.13;12.15;;;;;;;10.82;70.25;101362.41;5054414;28;20040;-64
2022/04/16 09:16:54;;;;;;;16.05;12.57;;;;;;;10.84;70.15;101375.41;5054359;28;20083;-64
2022/04/16 09:19:38;;;;;;;15.13;12.05;;;;;;;10.85;70.20;101369.41;5054185;28;20110;-64
2022/04/16 09:22:36;;;;;;;15.82;11.77;;;;;;;10.87;70.32;101372.94;5052820;28;20055;-64
2022/04/16 09:25:20;;;;;;;13.88;11.95;;;;;;;10.85;70.30;101362.47;5052801;28;20060;-64
2022/04/16 09:28:05;;;;;;;;;;;;;;;10.89;70.44;101363.50;5053096;28;20056;-64
2022/04/16 09:30:52;;;;;;;14.52;10.77;;;;;;;10.88;69.99;101362.59;5052502;28;19923;-65
2022/04/16 09:33:39;;;;;;;14.65;11.60;;;;;;;10.93;70.37;101367.94;5053059;28;20118;-64
2022/04/16 09:36:25;;;;;;;12.93;10.40;;;;;;;10.99;70.26;101375.06;5053257;28;20102;-64
2022/04/16 09:39:10;;;;;;;14.23;11.13;;;;;;;11.00;70.02;101372.53;5052667;28;20099;-64
2022/04/16 09:41:54;;;;;;;12.15;10.52;;;;;;;11.00;70.37;101371.63;5052901;28;20051;-65
2022/04/16 09:44:38;;;;;;;14.35;10.93;;;;;;;11.03;69.96;101371.75;5053566;28;20523;-64
2022/04/16 09:47:25;;;;;;;13.68;10.25;;;;;;;11.07;69.71;101376.22;5053275;28;20053;-64
2022/04/16 09:50:11;;;;;;;12.93;10.45;;;;;;;11.10;69.88;101373.75;5052358;28;20095;-64
2022/04/16 09:53:02;;;;;;;13.15;9.35;;;;;;;11.14;70.02;101377.31;5053562;28;20102;-64
2022/04/16 09:55:46;;;;;;;11.80;9.85;;;;;;;11.15;69.88;101364.41;5053205;28;20048;-64
2022/04/16 09:58:37;;;;;;;12.90;11.02;;;;;;;11.13;69.83;101371.28;5052819;28;20102;-64
2022/04/16 10:01:23;;;;;;;13.68;10.85;;;;;;;11.16;69.63;101366.16;5053160;28;20051;-64
2022/04/16 10:04:08;;;;;;;14.63;9.98;;;;;;;11.18;70.01;101367.09;5052598;28;20098;-64
2022/04/16 10:06:52;;;;;;;12.80;10.73;;;;;;;11.17;69.54;101367.94;5053410;28;20091;-64
2022/04/16 10:09:41;;;;;;;;;;;;;;;11.15;69.50;101369.59;5053865;28;20090;-64
2022/04/16 10:15:17;;;;;;;;;;;;;;;11.16;69.83;101373.06;5054000;28;20118;-65
2022/04/16 10:18:02;;;;;;;14.80;10.77;;;;;;;11.16;69.75;101370.47;5053076;28;20007;-64
2022/04/16 10:21:01;;;;;;;11.98;10.60;;;;;;;11.14;69.90;101366.94;5053419;28;20048;-64
2022/04/16 10:23:45;;;;;;;13.82;10.57;;;;;;;11.14;69.74;101372.13;5052014;28;20114;-64
2022/04/16 10:26:43;;;;;;;12.57;9.10;;;;;;;11.12;69.85;101367.78;5052811;28;20048;-64
2022/04/16 10:29:27;;;;;;;13.02;10.48;;;;;;;11.16;69.45;101366.16;5053119;28;20090;-64
2022/04/16 10:32:18;;;;;;;13.27;10.60;;;;;;;11.18;69.48;101376.63;5052933;28;20467;-64
2022/04/16 10:35:12;;;;;;;11.57;9.57;;;;;;;11.18;69.50;101374.03;5052104;28;20048;-64
2022/04/16 10:37:56;;;;;;;9.70;7.72;;;;;;;11.20;69.26;101375.81;5052454;28;20056;-64
2022/04/16 10:40:41;;;;;;;12.73;9.73;;;;;;;11.21;69.76;101369.81;5053363;28;20136;-64
2022/04/16 10:43:33;;;;;;;13.57;8.52;;;;;;;11.24;69.04;101364.72;5053318;28;20455;-65
2022/04/16 10:46:17;;;;;;;11.63;9.65;;;;;;;11.25;69.06;101355.22;5051904;28;20420;-64
2022/04/16 10:49:03;;;;;;;10.88;9.15;;;;;;;11.26;69.20;101356.97;5053089;28;20041;-64
2022/04/16 10:51:47;;;;;;;10.52;9.05;;;;;;;11.25;69.40;101343.13;5052058;28;20048;-64
2022/04/16 10:54:34;;;;;;;10.85;8.80;;;;;;;11.27;69.41;101341.47;5053021;28;20442;-64
2022/04/16 10:57:21;;;;;;;10.45;8.52;;;;;;;11.25;68.97;101344.84;5051690;28;20056;-64
2022/04/16 11:00:13;;;;;;;12.05;9.38;;;;;;;11.26;68.95;101342.31;5052549;28;20076;-64
2022/04/16 11:03:08;;;;;;;12.63;9.02;;;;;;;11.25;69.19;101353.53;5051768;28;20098;-64
2022/04/16 11:06:07;;;;;;;11.00;8.65;;;;;;;11.30;69.07;101344.97;5051716;28;20048;-64
2022/04/16 11:08:51;;;;;;;12.57;8.90;;;;;;;11.31;68.43;101347.66;5052864;28;20511;-64
2022/04/16 11:11:38;;;;;;;;;;;;;;;11.26;68.72;101349.19;5052758;28;20121;-65
2022/04/16 11:14:25;;;;;;;10.73;8.77;;;;;;;11.26;68.93;101350.09;5053404;28;19967;-64
2022/04/16 11:17:09;;;;;;;11.02;9.60;;;;;;;11.29;68.53;101346.72;5055413;28;20060;-64
2022/04/16 11:20:04;;;;;;;11.48;10.27;;;;;;;11.30;68.69;101348.47;5055934;28;20048;-64
2022/04/16 11:22:48;;;;;;;11.40;9.13;;;;;;;11.30;68.80;101355.38;5055023;28;20047;-64
2022/04/16 11:34:14;;;;;;;13.40;10.05;;;;;;;11.27;68.85;101348.38;5055273;28;20409;-65
2022/04/16 11:34:54;;;;;;;13.10;9.43;;;;;;;11.32;68.43;101345.91;5055520;28;20047;-64
2022/04/16 11:37:38;;;;;;;11.25;9.38;;;;;;;11.32;68.59;101343.31;5055749;28;20412;-64
2022/04/16 11:40:22;;;;;;;12.63;10.45;;;;;;;11.31;68.45;101346.75;5055350;28;20084;-65
2022/04/16 11:43:06;;;;;;;12.07;10.77;;;;;;;11.32;68.89;101352.00;5056117;28;20048;-64
2022/04/16 11:45:50;;;;;;;;;;;;;;;11.32;68.74;101348.53;5056157;28;20079;-65
2022/04/16 11:48:34;;;;;;;12.35;10.00;;;;;;;11.33;68.77;101346.00;5055391;28;19970;-64
2022/04/16 11:51:19;;;;;;;13.55;10.95;;;;;;;11.35;68.46;101344.34;5055389;28;20044;-64
2022/04/16 11:54:06;;;;;;;14.13;11.43;;;;;;;11.36;68.23;101345.19;5054495;28;20094;-64
2022/04/16 11:56:50;;;;;;;11.27;9.48;;;;;;;11.36;68.26;101342.59;5055186;28;20052;-64
2022/04/16 11:59:35;;;;;;;13.13;11.18;;;;;;;11.36;68.75;101337.41;5054633;28;20099;-64
2022/04/16 12:02:19;;;;;;;11.27;10.07;;;;;;;11.34;68.44;101336.47;5054887;28;20129;-64
2022/04/16 12:05:12;;;;;;;12.95;11.65;;;;;;;11.35;68.56;101338.25;5055691;28;20052;-64
2022/04/16 12:07:56;;;;;;;13.32;11.38;;;;;;;11.37;68.13;101337.47;5054002;28;20107;-64
2022/04/16 12:10:45;;;;;;;13.40;10.27;;;;;;;11.38;68.55;101325.38;5055016;28;20048;-64
2022/04/16 12:13:40;;;;;;;14.65;12.07;;;;;;;11.40;68.32;101334.97;5055279;28;20098;-64
2022/04/16 12:16:36;;;;;;;13.18;11.68;;;;;;;11.39;68.48;101332.34;5054094;28;20515;-65
2022/04/16 12:19:20;;;;;;;13.55;11.15;;;;;;;11.37;68.13;101332.25;5054562;28;20127;-64
2022/04/16 12:22:14;;;;;;;;;;;;;;;11.35;68.64;101327.88;5055734;28;20124;-64
2022/04/16 12:25:11;;;;;;;13.40;11.30;;;;;;;11.39;68.29;101324.53;5055336;28;19920;-64
2022/04/16 12:28:00;;;;;;;13.65;12.25;;;;;;;11.39;68.67;101322.81;5053823;28;20527;-64
2022/04/16 12:30:50;;;;;;;13.35;11.55;;;;;;;11.39;67.87;101315.03;5054331;28;20052;-64
2022/04/16 12:33:34;;;;;;;15.05;13.00;;;;;;;11.38;68.17;101308.06;5054791;28;20125;-64
2022/04/16 12:36:18;;;;;;;12.43;11.10;;;;;;;11.43;68.31;101313.44;5054469;28;20056;-64
2022/04/16 12:39:03;;;;;;;15.15;12.52;;;;;;;11.43;68.32;101303.06;5053488;28;20098;-64
2022/04/16 12:41:50;;;;;;;13.75;10.85;;;;;;;11.42;68.61;101303.88;5055067;28;20166;-64
2022/04/16 12:44:34;;;;;;;13.35;11.65;;;;;;;11.46;68.05;101312.66;5054875;28;20126;-64
2022/04/16 12:47:18;;;;;;;13.40;12.00;;;;;;;11.43;68.52;101298.72;5054157;28;20044;-64
2022/04/16 12:50:02;;;;;;;15.70;13.07;;;;;;;11.43;68.25;101300.47;5054630;28;20094;-64
2022/04/16 12:52:46;;;;;;;;;;;;;;;11.43;68.06;101308.25;5054955;28;20070;-64
2022/04/16 12:55:31;;;;;;;12.32;10.65;;;;;;;11.42;68.32;101307.34;5054409;28;19938;-64
2022/04/16 12:58:15;;;;;;;13.27;11.55;;;;;;;11.45;67.98;101300.50;5054719;28;20051;-65
2022/04/16 13:00:59;;;;;;;12.32;10.70;;;;;;;11.44;68.66;101299.63;5054427;28;20052;-65
2022/04/16 13:03:44;;;;;;;14.10;11.88;;;;;;;11.47;67.89;101301.44;5053314;28;20133;-64
2022/04/16 13:06:27;;;;;;;13.88;11.85;;;;;;;11.45;67.95;101298.78;5054055;28;20136;-64